sensor_id;sensor_type;location;lat;lon;timestamp;temperature;humidity
20750;DHT22;10535;50.664;4.564;2023-04-25T00:01:01;8.40;99.90
20750;DHT22;10535;50.664;4.564;2023-04-25T00:03:27;8.50;99.90
20750;DHT22;10535;50.664;4.564;2023-04-25T00:05:54;8.40;99.90
20750;DHT22;10535;50.664;4.564;2023-04-25T00:08:22;8.70;99.90
20750;DHT22;10535;50.664;4.564;2023-04-25T00:10:48;8.60;99.90
20750;DHT22;10535;50.664;4.564;2023-04-25T00:13:14;8.50;99.90
20750;DHT22;10535;50.664;4.564;2023-04-25T00:15:40;8.60;99.90
20750;DHT22;10535;50.664;4.564;2023-04-25T00:18:07;8.50;99.90
20750;DHT22;10535;50.664;4.564;2023-04-25T00:20:33;8.60;99.90
20750;DHT22;10535;50.664;4.564;2023-04-25T00:22:58;8.70;99.90
20750;DHT22;10535;50.664;4.564;2023-04-25T00:25:24;8.70;99.90
20750;DHT22;10535;50.664;4.564;2023-04-25T00:27:50;8.60;99.90
20750;DHT22;10535;50.664;4.564;2023-04-25T00:30:15;8.60;99.90
20750;DHT22;10535;50.664;4.564;2023-04-25T00:32:41;8.70;99.90
20750;DHT22;10535;50.664;4.564;2023-04-25T00:35:07;8.70;99.90
20750;DHT22;10535;50.664;4.564;2023-04-25T00:37:33;8.50;99.90
20750;DHT22;10535;50.664;4.564;2023-04-25T00:39:58;8.50;99.90
20750;DHT22;10535;50.664;4.564;2023-04-25T00:42:25;8.40;99.90
20750;DHT22;10535;50.664;4.564;2023-04-25T00:44:52;8.60;99.90
20750;DHT22;10535;50.664;4.564;2023-04-25T00:47:18;8.50;99.90
20750;DHT22;10535;50.664;4.564;2023-04-25T00:49:44;8.50;99.90
20750;DHT22;10535;50.664;4.564;2023-04-25T00:52:10;8.30;99.90
20750;DHT22;10535;50.664;4.564;2023-04-25T00:54:36;8.40;99.90
20750;DHT22;10535;50.664;4.564;2023-04-25T00:57:02;8.50;99.90
20750;DHT22;10535;50.664;4.564;2023-04-25T00:59:28;8.40;99.90
20750;DHT22;10535;50.664;4.564;2023-04-25T01:01:56;8.40;99.90
20750;DHT22;10535;50.664;4.564;2023-04-25T01:04:23;8.40;99.90
20750;DHT22;10535;50.664;4.564;2023-04-25T01:06:49;8.40;99.90
20750;DHT22;10535;50.664;4.564;2023-04-25T01:09:16;8.60;99.90
20750;DHT22;10535;50.664;4.564;2023-04-25T01:11:41;8.50;99.90
20750;DHT22;10535;50.664;4.564;2023-04-25T01:14:07;8.70;99.90
20750;DHT22;10535;50.664;4.564;2023-04-25T01:16:33;8.60;99.90
20750;DHT22;10535;50.664;4.564;2023-04-25T01:18:59;8.50;99.90
20750;DHT22;10535;50.664;4.564;2023-04-25T01:21:25;8.30;99.90
20750;DHT22;10535;50.664;4.564;2023-04-25T01:23:53;8.20;99.90
20750;DHT22;10535;50.664;4.564;2023-04-25T01:26:20;8.00;99.90
20750;DHT22;10535;50.664;4.564;2023-04-25T01:28:47;8.10;99.90
20750;DHT22;10535;50.664;4.564;2023-04-25T01:31:14;8.00;99.90
20750;DHT22;10535;50.664;4.564;2023-04-25T01:33:40;7.90;99.90
20750;DHT22;10535;50.664;4.564;2023-04-25T01:36:06;8.10;99.90
20750;DHT22;10535;50.664;4.564;2023-04-25T01:38:32;8.10;99.90
20750;DHT22;10535;50.664;4.564;2023-04-25T01:41:00;8.20;99.90
20750;DHT22;10535;50.664;4.564;2023-04-25T01:43:25;8.20;99.90
20750;DHT22;10535;50.664;4.564;2023-04-25T01:45:52;8.30;99.90
20750;DHT22;10535;50.664;4.564;2023-04-25T01:48:17;8.20;99.90
20750;DHT22;10535;50.664;4.564;2023-04-25T01:50:43;8.20;99.90
20750;DHT22;10535;50.664;4.564;2023-04-25T01:53:09;8.10;99.90
20750;DHT22;10535;50.664;4.564;2023-04-25T01:55:37;8.10;99.90
20750;DHT22;10535;50.664;4.564;2023-04-25T01:58:03;8.20;99.90
20750;DHT22;10535;50.664;4.564;2023-04-25T02:00:29;8.10;99.90
20750;DHT22;10535;50.664;4.564;2023-04-25T02:02:58;8.30;99.90
20750;DHT22;10535;50.664;4.564;2023-04-25T02:05:23;8.10;99.90
20750;DHT22;10535;50.664;4.564;2023-04-25T02:07:49;8.00;99.90
20750;DHT22;10535;50.664;4.564;2023-04-25T02:10:15;7.80;99.90
20750;DHT22;10535;50.664;4.564;2023-04-25T02:12:41;7.80;99.90
20750;DHT22;10535;50.664;4.564;2023-04-25T02:15:07;7.70;99.90
20750;DHT22;10535;50.664;4.564;2023-04-25T02:17:32;7.80;99.90
20750;DHT22;10535;50.664;4.564;2023-04-25T02:19:58;7.70;99.90
20750;DHT22;10535;50.664;4.564;2023-04-25T02:22:24;7.60;99.90
20750;DHT22;10535;50.664;4.564;2023-04-25T02:24:52;7.60;99.90
20750;DHT22;10535;50.664;4.564;2023-04-25T02:27:18;7.60;99.90
20750;DHT22;10535;50.664;4.564;2023-04-25T02:29:43;7.70;99.90
20750;DHT22;10535;50.664;4.564;2023-04-25T02:32:09;7.70;99.90
20750;DHT22;10535;50.664;4.564;2023-04-25T02:34:35;7.70;99.90
20750;DHT22;10535;50.664;4.564;2023-04-25T02:37:00;7.70;99.90
20750;DHT22;10535;50.664;4.564;2023-04-25T02:39:26;7.80;99.90
20750;DHT22;10535;50.664;4.564;2023-04-25T02:41:52;7.60;99.90
20750;DHT22;10535;50.664;4.564;2023-04-25T02:44:18;7.60;99.90
20750;DHT22;10535;50.664;4.564;2023-04-25T02:46:44;7.70;99.90
20750;DHT22;10535;50.664;4.564;2023-04-25T02:49:09;7.60;99.90
20750;DHT22;10535;50.664;4.564;2023-04-25T02:51:35;7.50;99.90
20750;DHT22;10535;50.664;4.564;2023-04-25T02:54:00;7.50;99.90
20750;DHT22;10535;50.664;4.564;2023-04-25T02:56:26;7.50;99.90
20750;DHT22;10535;50.664;4.564;2023-04-25T02:58:52;7.60;99.90
20750;DHT22;10535;50.664;4.564;2023-04-25T03:01:18;7.70;99.90
20750;DHT22;10535;50.664;4.564;2023-04-25T03:03:44;7.90;99.90
20750;DHT22;10535;50.664;4.564;2023-04-25T03:06:09;7.90;99.90
20750;DHT22;10535;50.664;4.564;2023-04-25T03:08:35;7.80;99.90
20750;DHT22;10535;50.664;4.564;2023-04-25T03:11:01;7.80;99.90
20750;DHT22;10535;50.664;4.564;2023-04-25T03:13:26;7.70;99.90
20750;DHT22;10535;50.664;4.564;2023-04-25T03:15:52;7.70;99.90
20750;DHT22;10535;50.664;4.564;2023-04-25T03:18:18;7.50;99.90
20750;DHT22;10535;50.664;4.564;2023-04-25T03:20:45;7.40;99.90
20750;DHT22;10535;50.664;4.564;2023-04-25T03:23:12;7.20;99.90
20750;DHT22;10535;50.664;4.564;2023-04-25T03:25:37;7.20;99.90
20750;DHT22;10535;50.664;4.564;2023-04-25T03:28:03;7.10;99.90
20750;DHT22;10535;50.664;4.564;2023-04-25T03:30:28;6.90;99.90
20750;DHT22;10535;50.664;4.564;2023-04-25T03:32:54;6.90;99.90
20750;DHT22;10535;50.664;4.564;2023-04-25T03:35:20;6.90;99.90
20750;DHT22;10535;50.664;4.564;2023-04-25T03:37:46;6.70;99.90
20750;DHT22;10535;50.664;4.564;2023-04-25T03:40:12;6.70;99.90
20750;DHT22;10535;50.664;4.564;2023-04-25T03:42:37;6.60;99.90
20750;DHT22;10535;50.664;4.564;2023-04-25T03:45:03;6.60;99.90
20750;DHT22;10535;50.664;4.564;2023-04-25T03:47:29;6.60;99.90
20750;DHT22;10535;50.664;4.564;2023-04-25T03:49:55;6.70;99.90
20750;DHT22;10535;50.664;4.564;2023-04-25T03:52:20;6.70;99.90
20750;DHT22;10535;50.664;4.564;2023-04-25T03:54:46;6.90;99.90
20750;DHT22;10535;50.664;4.564;2023-04-25T03:57:11;6.90;99.90
20750;DHT22;10535;50.664;4.564;2023-04-25T03:59:37;7.00;99.90
20750;DHT22;10535;50.664;4.564;2023-04-25T04:02:03;7.00;99.90
20750;DHT22;10535;50.664;4.564;2023-04-25T04:04:29;7.10;99.90
20750;DHT22;10535;50.664;4.564;2023-04-25T04:06:56;7.10;99.90
20750;DHT22;10535;50.664;4.564;2023-04-25T04:09:22;7.10;99.90
20750;DHT22;10535;50.664;4.564;2023-04-25T04:11:47;7.20;99.90
20750;DHT22;10535;50.664;4.564;2023-04-25T04:14:13;7.40;99.90
20750;DHT22;10535;50.664;4.564;2023-04-25T04:16:39;7.50;99.90
20750;DHT22;10535;50.664;4.564;2023-04-25T04:19:05;7.50;99.90
20750;DHT22;10535;50.664;4.564;2023-04-25T04:21:31;7.60;99.90
20750;DHT22;10535;50.664;4.564;2023-04-25T04:23:57;7.40;99.90
20750;DHT22;10535;50.664;4.564;2023-04-25T04:26:25;7.30;99.90
20750;DHT22;10535;50.664;4.564;2023-04-25T04:28:51;7.40;99.90
20750;DHT22;10535;50.664;4.564;2023-04-25T04:31:22;7.40;99.90
20750;DHT22;10535;50.664;4.564;2023-04-25T04:33:51;7.60;99.90
20750;DHT22;10535;50.664;4.564;2023-04-25T04:36:18;7.50;99.90
20750;DHT22;10535;50.664;4.564;2023-04-25T04:38:48;7.60;99.90
20750;DHT22;10535;50.664;4.564;2023-04-25T04:41:14;7.50;99.90
20750;DHT22;10535;50.664;4.564;2023-04-25T04:43:40;7.30;99.90
20750;DHT22;10535;50.664;4.564;2023-04-25T04:46:06;7.40;99.90
20750;DHT22;10535;50.664;4.564;2023-04-25T04:48:32;7.20;99.90
20750;DHT22;10535;50.664;4.564;2023-04-25T04:51:22;7.00;99.90
20750;DHT22;10535;50.664;4.564;2023-04-25T04:53:57;6.90;99.90
20750;DHT22;10535;50.664;4.564;2023-04-25T04:56:24;6.70;99.90
20750;DHT22;10535;50.664;4.564;2023-04-25T04:58:53;6.70;99.90
20750;DHT22;10535;50.664;4.564;2023-04-25T05:01:20;6.80;99.90
20750;DHT22;10535;50.664;4.564;2023-04-25T05:03:48;6.60;99.90
20750;DHT22;10535;50.664;4.564;2023-04-25T05:06:14;6.50;99.90
20750;DHT22;10535;50.664;4.564;2023-04-25T05:08:41;6.40;99.90
20750;DHT22;10535;50.664;4.564;2023-04-25T05:11:07;6.50;99.90
20750;DHT22;10535;50.664;4.564;2023-04-25T05:13:35;6.60;99.90
20750;DHT22;10535;50.664;4.564;2023-04-25T05:16:03;6.60;99.90
20750;DHT22;10535;50.664;4.564;2023-04-25T05:18:32;6.70;99.90
20750;DHT22;10535;50.664;4.564;2023-04-25T05:21:01;6.80;99.90
20750;DHT22;10535;50.664;4.564;2023-04-25T05:23:27;7.00;99.90
20750;DHT22;10535;50.664;4.564;2023-04-25T05:25:56;7.00;99.90
20750;DHT22;10535;50.664;4.564;2023-04-25T05:28:27;7.00;99.90
20750;DHT22;10535;50.664;4.564;2023-04-25T05:30:58;7.30;99.90
20750;DHT22;10535;50.664;4.564;2023-04-25T05:33:26;7.30;99.90
20750;DHT22;10535;50.664;4.564;2023-04-25T05:35:57;7.30;99.90
20750;DHT22;10535;50.664;4.564;2023-04-25T05:38:23;6.90;99.90
20750;DHT22;10535;50.664;4.564;2023-04-25T05:40:54;7.00;99.90
20750;DHT22;10535;50.664;4.564;2023-04-25T05:43:21;7.30;99.90
20750;DHT22;10535;50.664;4.564;2023-04-25T05:45:48;7.30;99.90
20750;DHT22;10535;50.664;4.564;2023-04-25T05:48:14;7.40;99.90
20750;DHT22;10535;50.664;4.564;2023-04-25T05:50:40;7.30;99.90
20750;DHT22;10535;50.664;4.564;2023-04-25T05:53:19;7.20;99.90
20750;DHT22;10535;50.664;4.564;2023-04-25T05:55:47;7.00;99.90
20750;DHT22;10535;50.664;4.564;2023-04-25T05:58:13;7.00;99.90
20750;DHT22;10535;50.664;4.564;2023-04-25T06:00:39;7.10;99.90
20750;DHT22;10535;50.664;4.564;2023-04-25T06:03:17;7.30;99.90
20750;DHT22;10535;50.664;4.564;2023-04-25T06:06:03;7.10;99.90
20750;DHT22;10535;50.664;4.564;2023-04-25T06:08:30;6.90;99.90
20750;DHT22;10535;50.664;4.564;2023-04-25T06:11:00;6.60;99.90
20750;DHT22;10535;50.664;4.564;2023-04-25T06:13:30;6.60;99.90
20750;DHT22;10535;50.664;4.564;2023-04-25T06:15:56;6.70;99.90
20750;DHT22;10535;50.664;4.564;2023-04-25T06:18:22;6.70;99.90
20750;DHT22;10535;50.664;4.564;2023-04-25T06:20:49;6.90;99.90
20750;DHT22;10535;50.664;4.564;2023-04-25T06:23:15;6.70;99.90
20750;DHT22;10535;50.664;4.564;2023-04-25T06:25:41;6.80;99.90
20750;DHT22;10535;50.664;4.564;2023-04-25T06:28:08;7.00;99.90
20750;DHT22;10535;50.664;4.564;2023-04-25T06:30:43;6.90;99.90
20750;DHT22;10535;50.664;4.564;2023-04-25T06:33:15;6.90;99.90
20750;DHT22;10535;50.664;4.564;2023-04-25T06:35:41;7.10;99.90
20750;DHT22;10535;50.664;4.564;2023-04-25T06:38:07;7.20;99.90
20750;DHT22;10535;50.664;4.564;2023-04-25T06:40:34;7.20;99.90
20750;DHT22;10535;50.664;4.564;2023-04-25T06:43:01;7.40;99.90
20750;DHT22;10535;50.664;4.564;2023-04-25T06:45:27;7.50;99.90
20750;DHT22;10535;50.664;4.564;2023-04-25T06:47:56;7.50;99.90
20750;DHT22;10535;50.664;4.564;2023-04-25T06:50:26;7.70;99.90
20750;DHT22;10535;50.664;4.564;2023-04-25T06:52:52;7.70;99.90
20750;DHT22;10535;50.664;4.564;2023-04-25T06:55:18;7.70;99.90
20750;DHT22;10535;50.664;4.564;2023-04-25T06:57:45;7.90;99.90
20750;DHT22;10535;50.664;4.564;2023-04-25T07:00:37;7.70;99.90
20750;DHT22;10535;50.664;4.564;2023-04-25T07:03:03;7.90;99.90
20750;DHT22;10535;50.664;4.564;2023-04-25T07:05:30;7.90;99.90
20750;DHT22;10535;50.664;4.564;2023-04-25T07:07:56;8.20;99.90
20750;DHT22;10535;50.664;4.564;2023-04-25T07:10:25;8.20;99.90
20750;DHT22;10535;50.664;4.564;2023-04-25T07:12:51;8.60;99.90
20750;DHT22;10535;50.664;4.564;2023-04-25T07:15:17;8.40;99.90
20750;DHT22;10535;50.664;4.564;2023-04-25T07:17:49;8.20;99.90
20750;DHT22;10535;50.664;4.564;2023-04-25T07:20:55;8.10;99.90
20750;DHT22;10535;50.664;4.564;2023-04-25T07:24:21;8.40;99.90
20750;DHT22;10535;50.664;4.564;2023-04-25T07:27:11;8.60;99.90
20750;DHT22;10535;50.664;4.564;2023-04-25T07:29:40;8.70;99.90
20750;DHT22;10535;50.664;4.564;2023-04-25T07:32:06;9.00;99.90
20750;DHT22;10535;50.664;4.564;2023-04-25T07:34:33;8.80;99.90
20750;DHT22;10535;50.664;4.564;2023-04-25T07:37:02;8.90;99.90
20750;DHT22;10535;50.664;4.564;2023-04-25T07:39:28;9.20;99.90
20750;DHT22;10535;50.664;4.564;2023-04-25T07:41:54;9.30;99.90
20750;DHT22;10535;50.664;4.564;2023-04-25T07:44:20;9.50;99.90
20750;DHT22;10535;50.664;4.564;2023-04-25T07:46:47;9.20;99.90
20750;DHT22;10535;50.664;4.564;2023-04-25T07:49:13;9.30;99.90
20750;DHT22;10535;50.664;4.564;2023-04-25T07:51:38;9.30;99.90
20750;DHT22;10535;50.664;4.564;2023-04-25T07:54:04;9.10;99.90
20750;DHT22;10535;50.664;4.564;2023-04-25T07:56:36;9.30;99.90
20750;DHT22;10535;50.664;4.564;2023-04-25T07:59:31;9.50;99.90
20750;DHT22;10535;50.664;4.564;2023-04-25T08:02:18;9.40;99.90
20750;DHT22;10535;50.664;4.564;2023-04-25T08:04:48;9.60;99.90
20750;DHT22;10535;50.664;4.564;2023-04-25T08:07:37;9.60;99.90
20750;DHT22;10535;50.664;4.564;2023-04-25T08:10:07;9.70;99.90
20750;DHT22;10535;50.664;4.564;2023-04-25T08:12:56;9.80;99.90
20750;DHT22;10535;50.664;4.564;2023-04-25T08:15:22;9.60;99.90
20750;DHT22;10535;50.664;4.564;2023-04-25T08:17:48;9.70;99.90
20750;DHT22;10535;50.664;4.564;2023-04-25T08:20:14;10.00;99.90
20750;DHT22;10535;50.664;4.564;2023-04-25T08:22:40;10.00;99.90
20750;DHT22;10535;50.664;4.564;2023-04-25T08:25:08;10.10;99.90
20750;DHT22;10535;50.664;4.564;2023-04-25T08:27:34;10.20;99.90
20750;DHT22;10535;50.664;4.564;2023-04-25T08:30:12;10.40;99.90
20750;DHT22;10535;50.664;4.564;2023-04-25T08:33:04;10.90;99.90
20750;DHT22;10535;50.664;4.564;2023-04-25T08:35:31;10.70;99.90
20750;DHT22;10535;50.664;4.564;2023-04-25T08:37:58;10.90;99.90
20750;DHT22;10535;50.664;4.564;2023-04-25T08:40:27;10.80;99.90
20750;DHT22;10535;50.664;4.564;2023-04-25T08:42:57;10.80;99.90
20750;DHT22;10535;50.664;4.564;2023-04-25T08:45:23;10.90;99.90
20750;DHT22;10535;50.664;4.564;2023-04-25T08:47:51;11.20;99.90
20750;DHT22;10535;50.664;4.564;2023-04-25T08:50:18;11.30;99.90
20750;DHT22;10535;50.664;4.564;2023-04-25T08:52:48;11.40;99.90
20750;DHT22;10535;50.664;4.564;2023-04-25T08:55:18;11.80;99.90
20750;DHT22;10535;50.664;4.564;2023-04-25T08:57:51;12.00;99.90
20750;DHT22;10535;50.664;4.564;2023-04-25T09:00:35;12.00;99.90
20750;DHT22;10535;50.664;4.564;2023-04-25T09:03:01;11.40;99.90
20750;DHT22;10535;50.664;4.564;2023-04-25T09:05:28;10.70;99.90
20750;DHT22;10535;50.664;4.564;2023-04-25T09:07:54;10.30;99.90
20750;DHT22;10535;50.664;4.564;2023-04-25T09:10:28;10.30;99.90
20750;DHT22;10535;50.664;4.564;2023-04-25T09:13:09;10.20;99.90
20750;DHT22;10535;50.664;4.564;2023-04-25T09:15:51;10.60;99.90
20750;DHT22;10535;50.664;4.564;2023-04-25T09:18:27;10.90;99.90
20750;DHT22;10535;50.664;4.564;2023-04-25T09:20:54;11.10;99.90
20750;DHT22;10535;50.664;4.564;2023-04-25T09:23:21;11.80;99.90
20750;DHT22;10535;50.664;4.564;2023-04-25T09:25:50;12.10;99.90
20750;DHT22;10535;50.664;4.564;2023-04-25T09:28:16;11.50;99.90
20750;DHT22;10535;50.664;4.564;2023-04-25T09:30:48;10.90;99.90
20750;DHT22;10535;50.664;4.564;2023-04-25T09:33:13;10.90;99.90
20750;DHT22;10535;50.664;4.564;2023-04-25T09:35:45;10.90;99.90
20750;DHT22;10535;50.664;4.564;2023-04-25T09:40:51;11.20;99.90
20750;DHT22;10535;50.664;4.564;2023-04-25T09:43:29;10.90;99.90
20750;DHT22;10535;50.664;4.564;2023-04-25T09:45:56;11.20;99.90
20750;DHT22;10535;50.664;4.564;2023-04-25T09:48:26;11.10;99.90
20750;DHT22;10535;50.664;4.564;2023-04-25T09:53:51;11.40;99.90
20750;DHT22;10535;50.664;4.564;2023-04-25T09:56:16;10.80;99.90
20750;DHT22;10535;50.664;4.564;2023-04-25T09:58:44;10.70;99.90
20750;DHT22;10535;50.664;4.564;2023-04-25T10:01:11;10.80;99.90
20750;DHT22;10535;50.664;4.564;2023-04-25T10:03:40;10.90;99.90
20750;DHT22;10535;50.664;4.564;2023-04-25T10:06:19;10.90;99.90
20750;DHT22;10535;50.664;4.564;2023-04-25T10:08:49;10.80;99.90
20750;DHT22;10535;50.664;4.564;2023-04-25T10:11:15;10.70;99.90
20750;DHT22;10535;50.664;4.564;2023-04-25T10:13:41;11.00;99.90
20750;DHT22;10535;50.664;4.564;2023-04-25T10:16:09;10.80;99.90
20750;DHT22;10535;50.664;4.564;2023-04-25T10:18:37;10.70;99.90
20750;DHT22;10535;50.664;4.564;2023-04-25T10:21:04;10.90;99.90
20750;DHT22;10535;50.664;4.564;2023-04-25T10:23:54;11.20;99.90
20750;DHT22;10535;50.664;4.564;2023-04-25T10:26:23;11.30;99.90
20750;DHT22;10535;50.664;4.564;2023-04-25T10:28:59;11.00;99.90
20750;DHT22;10535;50.664;4.564;2023-04-25T10:31:45;10.30;99.90
20750;DHT22;10535;50.664;4.564;2023-04-25T10:34:12;9.80;99.90
20750;DHT22;10535;50.664;4.564;2023-04-25T10:36:38;10.00;99.90
20750;DHT22;10535;50.664;4.564;2023-04-25T10:39:07;10.20;99.90
20750;DHT22;10535;50.664;4.564;2023-04-25T10:41:47;10.40;99.90
20750;DHT22;10535;50.664;4.564;2023-04-25T10:44:17;10.40;99.90
20750;DHT22;10535;50.664;4.564;2023-04-25T10:46:44;10.50;99.90
20750;DHT22;10535;50.664;4.564;2023-04-25T10:49:11;10.20;99.90
20750;DHT22;10535;50.664;4.564;2023-04-25T10:54:40;9.90;99.90
20750;DHT22;10535;50.664;4.564;2023-04-25T10:57:06;10.40;99.90
20750;DHT22;10535;50.664;4.564;2023-04-25T10:59:32;10.90;99.90
20750;DHT22;10535;50.664;4.564;2023-04-25T11:01:57;11.40;99.90
20750;DHT22;10535;50.664;4.564;2023-04-25T11:04:24;11.70;99.90
20750;DHT22;10535;50.664;4.564;2023-04-25T11:09:28;11.90;99.90
20750;DHT22;10535;50.664;4.564;2023-04-25T11:11:56;12.20;99.90
20750;DHT22;10535;50.664;4.564;2023-04-25T11:14:22;12.10;99.90
20750;DHT22;10535;50.664;4.564;2023-04-25T11:16:56;12.30;99.90
20750;DHT22;10535;50.664;4.564;2023-04-25T11:19:23;12.00;99.90
20750;DHT22;10535;50.664;4.564;2023-04-25T11:21:49;11.90;99.90
20750;DHT22;10535;50.664;4.564;2023-04-25T11:24:18;11.90;99.90
20750;DHT22;10535;50.664;4.564;2023-04-25T11:26:46;11.90;99.90
20750;DHT22;10535;50.664;4.564;2023-04-25T11:29:13;12.10;99.90
20750;DHT22;10535;50.664;4.564;2023-04-25T11:31:43;12.30;99.90
20750;DHT22;10535;50.664;4.564;2023-04-25T11:34:09;12.00;99.90
20750;DHT22;10535;50.664;4.564;2023-04-25T11:36:37;12.10;99.90
20750;DHT22;10535;50.664;4.564;2023-04-25T11:39:04;12.00;99.90
20750;DHT22;10535;50.664;4.564;2023-04-25T11:41:31;11.90;99.90
20750;DHT22;10535;50.664;4.564;2023-04-25T11:43:57;11.90;99.90
20750;DHT22;10535;50.664;4.564;2023-04-25T11:46:22;11.80;99.90
20750;DHT22;10535;50.664;4.564;2023-04-25T11:48:48;11.80;99.90
20750;DHT22;10535;50.664;4.564;2023-04-25T11:51:15;11.90;99.90
20750;DHT22;10535;50.664;4.564;2023-04-25T11:53:42;11.80;99.90
20750;DHT22;10535;50.664;4.564;2023-04-25T11:56:10;11.30;99.90
20750;DHT22;10535;50.664;4.564;2023-04-25T11:59:02;10.90;99.90
20750;DHT22;10535;50.664;4.564;2023-04-25T12:01:29;11.00;99.90
20750;DHT22;10535;50.664;4.564;2023-04-25T12:03:56;11.00;99.90
20750;DHT22;10535;50.664;4.564;2023-04-25T12:06:26;11.10;99.90
20750;DHT22;10535;50.664;4.564;2023-04-25T12:09:01;10.90;99.90
20750;DHT22;10535;50.664;4.564;2023-04-25T12:11:26;10.80;99.90
20750;DHT22;10535;50.664;4.564;2023-04-25T12:13:52;10.90;99.90
20750;DHT22;10535;50.664;4.564;2023-04-25T12:16:19;11.00;99.90
20750;DHT22;10535;50.664;4.564;2023-04-25T12:18:44;10.90;99.90
20750;DHT22;10535;50.664;4.564;2023-04-25T12:21:10;11.10;99.90
20750;DHT22;10535;50.664;4.564;2023-04-25T12:23:38;11.30;99.90
20750;DHT22;10535;50.664;4.564;2023-04-25T12:26:04;11.30;99.90
20750;DHT22;10535;50.664;4.564;2023-04-25T12:28:32;11.50;99.90
20750;DHT22;10535;50.664;4.564;2023-04-25T12:31:05;11.70;99.90
20750;DHT22;10535;50.664;4.564;2023-04-25T12:33:40;11.80;99.90
20750;DHT22;10535;50.664;4.564;2023-04-25T12:36:08;11.70;99.90
20750;DHT22;10535;50.664;4.564;2023-04-25T12:38:41;11.90;99.90
20750;DHT22;10535;50.664;4.564;2023-04-25T12:41:07;12.10;99.90
20750;DHT22;10535;50.664;4.564;2023-04-25T12:43:34;12.30;99.90
20750;DHT22;10535;50.664;4.564;2023-04-25T12:46:00;12.10;99.90
20750;DHT22;10535;50.664;4.564;2023-04-25T12:48:25;12.30;99.90
20750;DHT22;10535;50.664;4.564;2023-04-25T12:50:51;12.50;99.90
20750;DHT22;10535;50.664;4.564;2023-04-25T12:53:18;12.60;99.90
20750;DHT22;10535;50.664;4.564;2023-04-25T12:55:45;12.70;99.90
20750;DHT22;10535;50.664;4.564;2023-04-25T12:58:14;12.70;99.90
20750;DHT22;10535;50.664;4.564;2023-04-25T13:00:40;13.00;99.90
20750;DHT22;10535;50.664;4.564;2023-04-25T13:03:06;13.10;99.90
20750;DHT22;10535;50.664;4.564;2023-04-25T13:05:32;13.00;99.90
20750;DHT22;10535;50.664;4.564;2023-04-25T13:07:57;12.80;99.90
20750;DHT22;10535;50.664;4.564;2023-04-25T13:10:24;12.90;99.90
20750;DHT22;10535;50.664;4.564;2023-04-25T13:12:50;12.70;99.90
20750;DHT22;10535;50.664;4.564;2023-04-25T13:15:16;12.40;99.90
20750;DHT22;10535;50.664;4.564;2023-04-25T13:17:42;11.90;99.90
20750;DHT22;10535;50.664;4.564;2023-04-25T13:20:08;12.00;99.90
20750;DHT22;10535;50.664;4.564;2023-04-25T13:22:35;12.50;99.90
20750;DHT22;10535;50.664;4.564;2023-04-25T13:25:05;12.50;99.90
20750;DHT22;10535;50.664;4.564;2023-04-25T13:27:32;12.40;99.90
20750;DHT22;10535;50.664;4.564;2023-04-25T13:29:59;12.40;99.90
20750;DHT22;10535;50.664;4.564;2023-04-25T13:32:25;12.40;99.90
20750;DHT22;10535;50.664;4.564;2023-04-25T13:34:51;12.00;99.90
20750;DHT22;10535;50.664;4.564;2023-04-25T13:37:18;11.90;99.90
20750;DHT22;10535;50.664;4.564;2023-04-25T13:39:43;11.80;99.90
20750;DHT22;10535;50.664;4.564;2023-04-25T13:42:09;11.90;99.90
20750;DHT22;10535;50.664;4.564;2023-04-25T13:44:35;12.00;99.90
20750;DHT22;10535;50.664;4.564;2023-04-25T13:47:00;11.80;99.90
20750;DHT22;10535;50.664;4.564;2023-04-25T13:49:26;11.70;99.90
20750;DHT22;10535;50.664;4.564;2023-04-25T13:51:52;11.70;99.90
20750;DHT22;10535;50.664;4.564;2023-04-25T13:54:18;12.20;99.90
20750;DHT22;10535;50.664;4.564;2023-04-25T13:56:43;12.40;99.90
20750;DHT22;10535;50.664;4.564;2023-04-25T13:59:09;12.70;99.90
20750;DHT22;10535;50.664;4.564;2023-04-25T14:01:35;12.70;99.90
20750;DHT22;10535;50.664;4.564;2023-04-25T14:04:02;12.60;99.90
20750;DHT22;10535;50.664;4.564;2023-04-25T14:06:29;12.30;99.90
20750;DHT22;10535;50.664;4.564;2023-04-25T14:08:55;11.70;99.90
20750;DHT22;10535;50.664;4.564;2023-04-25T14:11:21;11.60;99.90
20750;DHT22;10535;50.664;4.564;2023-04-25T14:13:47;11.20;99.90
20750;DHT22;10535;50.664;4.564;2023-04-25T14:16:15;11.30;99.90
20750;DHT22;10535;50.664;4.564;2023-04-25T14:18:41;11.10;99.90
20750;DHT22;10535;50.664;4.564;2023-04-25T14:21:06;11.20;99.90
20750;DHT22;10535;50.664;4.564;2023-04-25T14:23:32;11.30;99.90
20750;DHT22;10535;50.664;4.564;2023-04-25T14:25:58;11.60;99.90
20750;DHT22;10535;50.664;4.564;2023-04-25T14:28:23;11.80;99.90
20750;DHT22;10535;50.664;4.564;2023-04-25T14:30:49;11.90;99.90
20750;DHT22;10535;50.664;4.564;2023-04-25T14:33:15;11.90;99.90
20750;DHT22;10535;50.664;4.564;2023-04-25T14:35:41;12.20;99.90
20750;DHT22;10535;50.664;4.564;2023-04-25T14:38:06;12.80;99.90
20750;DHT22;10535;50.664;4.564;2023-04-25T14:40:33;13.20;99.90
20750;DHT22;10535;50.664;4.564;2023-04-25T14:42:58;13.30;99.90
20750;DHT22;10535;50.664;4.564;2023-04-25T14:45:24;13.00;99.90
20750;DHT22;10535;50.664;4.564;2023-04-25T14:47:50;12.80;99.90
20750;DHT22;10535;50.664;4.564;2023-04-25T14:50:16;12.50;99.90
20750;DHT22;10535;50.664;4.564;2023-04-25T14:52:41;12.10;99.90
20750;DHT22;10535;50.664;4.564;2023-04-25T14:55:08;11.90;99.90
20750;DHT22;10535;50.664;4.564;2023-04-25T14:57:34;11.90;99.90
20750;DHT22;10535;50.664;4.564;2023-04-25T15:00:00;11.80;99.90
20750;DHT22;10535;50.664;4.564;2023-04-25T15:02:26;11.60;99.90
20750;DHT22;10535;50.664;4.564;2023-04-25T15:04:53;11.50;99.90
20750;DHT22;10535;50.664;4.564;2023-04-25T15:07:21;11.70;99.90
20750;DHT22;10535;50.664;4.564;2023-04-25T15:09:47;11.90;99.90
20750;DHT22;10535;50.664;4.564;2023-04-25T15:12:13;12.00;99.90
20750;DHT22;10535;50.664;4.564;2023-04-25T15:14:39;12.10;99.90
20750;DHT22;10535;50.664;4.564;2023-04-25T15:17:05;11.90;99.90
20750;DHT22;10535;50.664;4.564;2023-04-25T15:19:31;11.70;99.90
20750;DHT22;10535;50.664;4.564;2023-04-25T15:21:57;12.00;99.90
20750;DHT22;10535;50.664;4.564;2023-04-25T15:24:25;12.20;99.90
20750;DHT22;10535;50.664;4.564;2023-04-25T15:26:51;12.20;99.90
20750;DHT22;10535;50.664;4.564;2023-04-25T15:29:17;12.00;99.90
20750;DHT22;10535;50.664;4.564;2023-04-25T15:31:43;12.30;99.90
20750;DHT22;10535;50.664;4.564;2023-04-25T15:34:09;12.60;99.90
20750;DHT22;10535;50.664;4.564;2023-04-25T15:36:35;12.70;99.90
20750;DHT22;10535;50.664;4.564;2023-04-25T15:39:00;12.60;99.90
20750;DHT22;10535;50.664;4.564;2023-04-25T15:41:28;12.40;99.90
20750;DHT22;10535;50.664;4.564;2023-04-25T15:43:54;12.40;99.90
20750;DHT22;10535;50.664;4.564;2023-04-25T15:46:20;12.00;99.90
20750;DHT22;10535;50.664;4.564;2023-04-25T15:48:47;11.80;99.90
20750;DHT22;10535;50.664;4.564;2023-04-25T15:51:13;11.70;99.90
20750;DHT22;10535;50.664;4.564;2023-04-25T15:53:39;12.00;99.90
20750;DHT22;10535;50.664;4.564;2023-04-25T15:56:05;12.00;99.90